sensor_id;sensor_type;location;lat;lon;timestamp;P1;durP1;ratioP1;P2;durP2;ratioP2
15913;SDS011;8055;51.930;8.840;2023-09-19T00:00:42;5.65;;;1.85;;
15913;SDS011;8055;51.930;8.840;2023-09-19T00:03:09;4.20;;;1.90;;
15913;SDS011;8055;51.930;8.840;2023-09-19T00:05:35;4.35;;;2.03;;
15913;SDS011;8055;51.930;8.840;2023-09-19T00:08:01;4.85;;;2.10;;
15913;SDS011;8055;51.930;8.840;2023-09-19T00:10:30;3.72;;;2.13;;
15913;SDS011;8055;51.930;8.840;2023-09-19T00:13:02;4.07;;;2.22;;
15913;SDS011;8055;51.930;8.840;2023-09-19T00:15:42;5.82;;;2.80;;
15913;SDS011;8055;51.930;8.840;2023-09-19T00:18:13;4.68;;;2.03;;
15913;SDS011;8055;51.930;8.840;2023-09-19T00:20:40;5.60;;;2.38;;
15913;SDS011;8055;51.930;8.840;2023-09-19T00:23:07;7.97;;;2.00;;
15913;SDS011;8055;51.930;8.840;2023-09-19T00:25:36;5.35;;;2.10;;
15913;SDS011;8055;51.930;8.840;2023-09-19T00:28:02;4.13;;;2.35;;
15913;SDS011;8055;51.930;8.840;2023-09-19T00:30:28;3.70;;;2.03;;
15913;SDS011;8055;51.930;8.840;2023-09-19T00:32:54;5.57;;;2.53;;
15913;SDS011;8055;51.930;8.840;2023-09-19T00:35:20;3.28;;;2.25;;
15913;SDS011;8055;51.930;8.840;2023-09-19T00:37:49;5.72;;;2.42;;
15913;SDS011;8055;51.930;8.840;2023-09-19T00:40:15;8.07;;;2.72;;
15913;SDS011;8055;51.930;8.840;2023-09-19T00:42:44;6.40;;;2.83;;
15913;SDS011;8055;51.930;8.840;2023-09-19T00:45:11;5.35;;;2.30;;
15913;SDS011;8055;51.930;8.840;2023-09-19T00:47:39;4.95;;;2.40;;
15913;SDS011;8055;51.930;8.840;2023-09-19T00:50:15;6.13;;;2.65;;
15913;SDS011;8055;51.930;8.840;2023-09-19T00:52:42;7.65;;;2.97;;
15913;SDS011;8055;51.930;8.840;2023-09-19T00:55:09;7.93;;;2.90;;
15913;SDS011;8055;51.930;8.840;2023-09-19T00:57:36;5.45;;;2.72;;
15913;SDS011;8055;51.930;8.840;2023-09-19T01:00:07;7.72;;;2.90;;
15913;SDS011;8055;51.930;8.840;2023-09-19T01:02:40;5.80;;;2.70;;
15913;SDS011;8055;51.930;8.840;2023-09-19T01:05:07;7.50;;;2.92;;
15913;SDS011;8055;51.930;8.840;2023-09-19T01:07:34;5.22;;;2.53;;
15913;SDS011;8055;51.930;8.840;2023-09-19T01:10:04;8.15;;;2.92;;
15913;SDS011;8055;51.930;8.840;2023-09-19T01:15:47;3.85;;;2.60;;
15913;SDS011;8055;51.930;8.840;2023-09-19T01:20:57;7.93;;;3.28;;
15913;SDS011;8055;51.930;8.840;2023-09-19T01:29:36;5.28;;;2.78;;
15913;SDS011;8055;51.930;8.840;2023-09-19T01:32:05;9.55;;;3.58;;
15913;SDS011;8055;51.930;8.840;2023-09-19T01:35:04;5.85;;;2.92;;
15913;SDS011;8055;51.930;8.840;2023-09-19T01:37:28;4.38;;;3.03;;
15913;SDS011;8055;51.930;8.840;2023-09-19T01:39:58;7.25;;;3.30;;
15913;SDS011;8055;51.930;8.840;2023-09-19T01:42:53;10.90;;;3.33;;
15913;SDS011;8055;51.930;8.840;2023-09-19T01:48:46;8.23;;;3.25;;
15913;SDS011;8055;51.930;8.840;2023-09-19T01:51:17;8.02;;;3.47;;
15913;SDS011;8055;51.930;8.840;2023-09-19T01:56:28;8.48;;;2.90;;
15913;SDS011;8055;51.930;8.840;2023-09-19T01:59:02;6.57;;;2.92;;
15913;SDS011;8055;51.930;8.840;2023-09-19T02:01:34;7.93;;;2.78;;
15913;SDS011;8055;51.930;8.840;2023-09-19T02:04:02;8.10;;;2.97;;
15913;SDS011;8055;51.930;8.840;2023-09-19T02:06:27;8.80;;;3.47;;
15913;SDS011;8055;51.930;8.840;2023-09-19T02:08:53;9.27;;;2.80;;
15913;SDS011;8055;51.930;8.840;2023-09-19T02:11:19;9.38;;;2.80;;
15913;SDS011;8055;51.930;8.840;2023-09-19T02:13:44;10.30;;;3.15;;
15913;SDS011;8055;51.930;8.840;2023-09-19T02:16:10;8.80;;;3.33;;
15913;SDS011;8055;51.930;8.840;2023-09-19T02:18:37;8.15;;;3.08;;
15913;SDS011;8055;51.930;8.840;2023-09-19T02:21:04;12.85;;;3.95;;
15913;SDS011;8055;51.930;8.840;2023-09-19T02:23:31;12.07;;;3.67;;
15913;SDS011;8055;51.930;8.840;2023-09-19T02:25:58;11.35;;;4.05;;
15913;SDS011;8055;51.930;8.840;2023-09-19T02:28:25;10.45;;;3.92;;
15913;SDS011;8055;51.930;8.840;2023-09-19T02:30:55;8.18;;;3.10;;
15913;SDS011;8055;51.930;8.840;2023-09-19T02:33:21;7.13;;;3.00;;
15913;SDS011;8055;51.930;8.840;2023-09-19T02:35:46;10.40;;;3.80;;
15913;SDS011;8055;51.930;8.840;2023-09-19T02:38:12;9.30;;;3.58;;
15913;SDS011;8055;51.930;8.840;2023-09-19T02:40:38;8.77;;;3.70;;
15913;SDS011;8055;51.930;8.840;2023-09-19T02:43:03;9.27;;;3.80;;
15913;SDS011;8055;51.930;8.840;2023-09-19T02:45:30;10.48;;;3.72;;
15913;SDS011;8055;51.930;8.840;2023-09-19T02:47:56;11.35;;;3.70;;
15913;SDS011;8055;51.930;8.840;2023-09-19T02:50:22;7.88;;;3.58;;
15913;SDS011;8055;51.930;8.840;2023-09-19T02:52:47;10.02;;;3.67;;
15913;SDS011;8055;51.930;8.840;2023-09-19T02:55:14;10.52;;;3.25;;
15913;SDS011;8055;51.930;8.840;2023-09-19T02:57:49;9.40;;;3.60;;
15913;SDS011;8055;51.930;8.840;2023-09-19T03:00:16;14.48;;;4.05;;
15913;SDS011;8055;51.930;8.840;2023-09-19T03:02:46;11.55;;;3.65;;
15913;SDS011;8055;51.930;8.840;2023-09-19T03:05:13;10.30;;;3.83;;
15913;SDS011;8055;51.930;8.840;2023-09-19T03:07:38;12.73;;;4.40;;
15913;SDS011;8055;51.930;8.840;2023-09-19T03:10:05;13.82;;;4.50;;
15913;SDS011;8055;51.930;8.840;2023-09-19T03:12:32;13.60;;;4.00;;
15913;SDS011;8055;51.930;8.840;2023-09-19T03:14:58;12.05;;;4.38;;
15913;SDS011;8055;51.930;8.840;2023-09-19T03:17:24;12.65;;;3.97;;
15913;SDS011;8055;51.930;8.840;2023-09-19T03:19:50;12.23;;;3.28;;
15913;SDS011;8055;51.930;8.840;2023-09-19T03:22:15;18.42;;;5.25;;
15913;SDS011;8055;51.930;8.840;2023-09-19T03:24:41;14.18;;;3.80;;
15913;SDS011;8055;51.930;8.840;2023-09-19T03:27:09;12.23;;;4.20;;
15913;SDS011;8055;51.930;8.840;2023-09-19T03:29:35;10.40;;;3.75;;
15913;SDS011;8055;51.930;8.840;2023-09-19T03:32:00;11.55;;;4.07;;
15913;SDS011;8055;51.930;8.840;2023-09-19T03:34:27;15.75;;;4.15;;
15913;SDS011;8055;51.930;8.840;2023-09-19T03:36:52;14.98;;;4.82;;
15913;SDS011;8055;51.930;8.840;2023-09-19T03:39:18;12.60;;;4.82;;
15913;SDS011;8055;51.930;8.840;2023-09-19T03:41:44;13.93;;;4.38;;
15913;SDS011;8055;51.930;8.840;2023-09-19T03:44:10;12.52;;;4.78;;
15913;SDS011;8055;51.930;8.840;2023-09-19T03:46:35;15.23;;;4.72;;
15913;SDS011;8055;51.930;8.840;2023-09-19T03:49:01;11.07;;;4.43;;
15913;SDS011;8055;51.930;8.840;2023-09-19T03:51:26;13.85;;;4.68;;
15913;SDS011;8055;51.930;8.840;2023-09-19T03:53:52;11.57;;;4.28;;
15913;SDS011;8055;51.930;8.840;2023-09-19T03:56:18;16.60;;;4.80;;
15913;SDS011;8055;51.930;8.840;2023-09-19T03:58:43;13.30;;;5.22;;
15913;SDS011;8055;51.930;8.840;2023-09-19T04:01:09;9.77;;;4.55;;
15913;SDS011;8055;51.930;8.840;2023-09-19T04:03:35;16.17;;;4.40;;
15913;SDS011;8055;51.930;8.840;2023-09-19T04:06:14;16.33;;;4.22;;
15913;SDS011;8055;51.930;8.840;2023-09-19T04:08:40;16.02;;;3.85;;
15913;SDS011;8055;51.930;8.840;2023-09-19T04:11:06;14.48;;;3.70;;
15913;SDS011;8055;51.930;8.840;2023-09-19T04:13:32;13.23;;;3.60;;
15913;SDS011;8055;51.930;8.840;2023-09-19T04:15:57;13.65;;;3.30;;
15913;SDS011;8055;51.930;8.840;2023-09-19T04:18:22;18.90;;;3.80;;
15913;SDS011;8055;51.930;8.840;2023-09-19T04:20:51;12.10;;;3.03;;
15913;SDS011;8055;51.930;8.840;2023-09-19T04:23:16;10.65;;;3.38;;
15913;SDS011;8055;51.930;8.840;2023-09-19T04:25:42;9.15;;;2.67;;
15913;SDS011;8055;51.930;8.840;2023-09-19T04:28:08;9.23;;;2.60;;
15913;SDS011;8055;51.930;8.840;2023-09-19T04:30:36;13.18;;;3.38;;
15913;SDS011;8055;51.930;8.840;2023-09-19T04:33:02;13.10;;;3.22;;
15913;SDS011;8055;51.930;8.840;2023-09-19T04:35:28;16.27;;;3.13;;
15913;SDS011;8055;51.930;8.840;2023-09-19T04:37:56;7.78;;;2.40;;
15913;SDS011;8055;51.930;8.840;2023-09-19T04:40:22;12.98;;;3.03;;
15913;SDS011;8055;51.930;8.840;2023-09-19T04:42:54;13.70;;;3.22;;
15913;SDS011;8055;51.930;8.840;2023-09-19T04:45:23;13.43;;;2.80;;
15913;SDS011;8055;51.930;8.840;2023-09-19T04:47:49;12.95;;;3.33;;
15913;SDS011;8055;51.930;8.840;2023-09-19T04:50:14;18.52;;;3.28;;
15913;SDS011;8055;51.930;8.840;2023-09-19T04:52:40;12.02;;;2.88;;
15913;SDS011;8055;51.930;8.840;2023-09-19T04:55:07;8.93;;;2.55;;
15913;SDS011;8055;51.930;8.840;2023-09-19T04:57:34;11.32;;;2.80;;
15913;SDS011;8055;51.930;8.840;2023-09-19T05:00:01;14.65;;;3.47;;
15913;SDS011;8055;51.930;8.840;2023-09-19T05:02:31;13.90;;;3.15;;
15913;SDS011;8055;51.930;8.840;2023-09-19T05:04:56;11.18;;;2.70;;
15913;SDS011;8055;51.930;8.840;2023-09-19T05:07:25;9.93;;;2.90;;
15913;SDS011;8055;51.930;8.840;2023-09-19T05:09:51;13.15;;;2.88;;
15913;SDS011;8055;51.930;8.840;2023-09-19T05:12:16;11.05;;;2.95;;
15913;SDS011;8055;51.930;8.840;2023-09-19T05:14:44;10.27;;;2.97;;
15913;SDS011;8055;51.930;8.840;2023-09-19T05:17:10;13.00;;;3.15;;
15913;SDS011;8055;51.930;8.840;2023-09-19T05:19:35;16.02;;;3.33;;
15913;SDS011;8055;51.930;8.840;2023-09-19T05:22:01;12.73;;;3.38;;
15913;SDS011;8055;51.930;8.840;2023-09-19T05:24:29;10.30;;;2.55;;
15913;SDS011;8055;51.930;8.840;2023-09-19T05:26:56;14.20;;;3.05;;
15913;SDS011;8055;51.930;8.840;2023-09-19T05:29:22;11.30;;;2.65;;
15913;SDS011;8055;51.930;8.840;2023-09-19T05:31:47;11.27;;;2.88;;
15913;SDS011;8055;51.930;8.840;2023-09-19T05:34:14;7.75;;;2.40;;
15913;SDS011;8055;51.930;8.840;2023-09-19T05:36:40;14.63;;;3.13;;
15913;SDS011;8055;51.930;8.840;2023-09-19T05:39:07;11.50;;;3.22;;
15913;SDS011;8055;51.930;8.840;2023-09-19T05:41:35;12.75;;;3.13;;
15913;SDS011;8055;51.930;8.840;2023-09-19T05:44:05;13.25;;;3.00;;
15913;SDS011;8055;51.930;8.840;2023-09-19T05:46:32;15.13;;;2.95;;
15913;SDS011;8055;51.930;8.840;2023-09-19T05:48:57;9.35;;;2.85;;
15913;SDS011;8055;51.930;8.840;2023-09-19T05:51:22;16.08;;;3.53;;
15913;SDS011;8055;51.930;8.840;2023-09-19T05:53:48;11.73;;;3.13;;
15913;SDS011;8055;51.930;8.840;2023-09-19T05:56:15;13.60;;;3.55;;
15913;SDS011;8055;51.930;8.840;2023-09-19T05:58:40;17.75;;;3.13;;
15913;SDS011;8055;51.930;8.840;2023-09-19T06:01:09;13.93;;;3.00;;
15913;SDS011;8055;51.930;8.840;2023-09-19T06:03:35;11.75;;;2.75;;
15913;SDS011;8055;51.930;8.840;2023-09-19T06:06:01;10.07;;;2.65;;
15913;SDS011;8055;51.930;8.840;2023-09-19T06:08:27;12.88;;;3.03;;
15913;SDS011;8055;51.930;8.840;2023-09-19T06:10:53;18.50;;;3.63;;
15913;SDS011;8055;51.930;8.840;2023-09-19T06:13:19;10.80;;;2.72;;
15913;SDS011;8055;51.930;8.840;2023-09-19T06:15:45;11.98;;;2.65;;
15913;SDS011;8055;51.930;8.840;2023-09-19T06:18:12;11.60;;;2.92;;
15913;SDS011;8055;51.930;8.840;2023-09-19T06:20:48;10.10;;;2.60;;
15913;SDS011;8055;51.930;8.840;2023-09-19T06:23:15;14.65;;;2.97;;
15913;SDS011;8055;51.930;8.840;2023-09-19T06:25:42;16.05;;;3.67;;
15913;SDS011;8055;51.930;8.840;2023-09-19T06:28:09;14.70;;;3.28;;
15913;SDS011;8055;51.930;8.840;2023-09-19T06:30:38;12.73;;;2.75;;
15913;SDS011;8055;51.930;8.840;2023-09-19T06:33:06;14.07;;;3.05;;
15913;SDS011;8055;51.930;8.840;2023-09-19T06:35:33;15.95;;;3.33;;
15913;SDS011;8055;51.930;8.840;2023-09-19T06:38:01;12.02;;;2.75;;
15913;SDS011;8055;51.930;8.840;2023-09-19T06:40:28;10.57;;;2.78;;
15913;SDS011;8055;51.930;8.840;2023-09-19T06:42:56;14.30;;;2.40;;
15913;SDS011;8055;51.930;8.840;2023-09-19T06:45:22;9.27;;;2.97;;
15913;SDS011;8055;51.930;8.840;2023-09-19T06:47:48;8.85;;;2.33;;
15913;SDS011;8055;51.930;8.840;2023-09-19T06:50:15;11.90;;;2.65;;
15913;SDS011;8055;51.930;8.840;2023-09-19T06:52:44;10.50;;;2.75;;
15913;SDS011;8055;51.930;8.840;2023-09-19T06:55:11;11.90;;;2.50;;
15913;SDS011;8055;51.930;8.840;2023-09-19T06:57:38;9.73;;;2.70;;
15913;SDS011;8055;51.930;8.840;2023-09-19T07:00:06;18.55;;;3.38;;
15913;SDS011;8055;51.930;8.840;2023-09-19T07:02:40;9.20;;;2.40;;
15913;SDS011;8055;51.930;8.840;2023-09-19T07:05:09;14.88;;;2.80;;
15913;SDS011;8055;51.930;8.840;2023-09-19T07:07:34;11.90;;;2.95;;
15913;SDS011;8055;51.930;8.840;2023-09-19T07:10:01;10.88;;;3.10;;
15913;SDS011;8055;51.930;8.840;2023-09-19T07:12:28;11.63;;;3.15;;
15913;SDS011;8055;51.930;8.840;2023-09-19T07:14:53;14.07;;;2.70;;
15913;SDS011;8055;51.930;8.840;2023-09-19T07:17:19;14.38;;;2.75;;
15913;SDS011;8055;51.930;8.840;2023-09-19T07:19:44;9.68;;;2.78;;
15913;SDS011;8055;51.930;8.840;2023-09-19T07:22:10;10.68;;;2.55;;
15913;SDS011;8055;51.930;8.840;2023-09-19T07:24:36;14.38;;;2.85;;
15913;SDS011;8055;51.930;8.840;2023-09-19T07:27:02;10.52;;;2.92;;
15913;SDS011;8055;51.930;8.840;2023-09-19T07:29:28;10.50;;;2.70;;
15913;SDS011;8055;51.930;8.840;2023-09-19T07:31:53;11.77;;;2.70;;
15913;SDS011;8055;51.930;8.840;2023-09-19T07:34:19;15.52;;;3.42;;
15913;SDS011;8055;51.930;8.840;2023-09-19T07:36:47;8.52;;;2.40;;
15913;SDS011;8055;51.930;8.840;2023-09-19T07:39:13;12.95;;;2.95;;
15913;SDS011;8055;51.930;8.840;2023-09-19T07:41:38;13.57;;;2.95;;
15913;SDS011;8055;51.930;8.840;2023-09-19T07:44:04;12.40;;;2.80;;
15913;SDS011;8055;51.930;8.840;2023-09-19T07:46:30;18.00;;;3.60;;
15913;SDS011;8055;51.930;8.840;2023-09-19T07:48:56;9.05;;;2.42;;
15913;SDS011;8055;51.930;8.840;2023-09-19T07:51:25;17.23;;;2.90;;
15913;SDS011;8055;51.930;8.840;2023-09-19T07:53:52;12.50;;;2.80;;
15913;SDS011;8055;51.930;8.840;2023-09-19T07:56:18;10.35;;;2.88;;
15913;SDS011;8055;51.930;8.840;2023-09-19T07:58:46;9.75;;;2.80;;
15913;SDS011;8055;51.930;8.840;2023-09-19T08:01:12;9.88;;;2.40;;
15913;SDS011;8055;51.930;8.840;2023-09-19T08:03:38;9.45;;;2.60;;
15913;SDS011;8055;51.930;8.840;2023-09-19T08:06:06;13.05;;;3.22;;
15913;SDS011;8055;51.930;8.840;2023-09-19T08:08:33;16.25;;;3.25;;
15913;SDS011;8055;51.930;8.840;2023-09-19T08:11:05;17.45;;;2.38;;
15913;SDS011;8055;51.930;8.840;2023-09-19T08:13:38;13.10;;;2.95;;
15913;SDS011;8055;51.930;8.840;2023-09-19T08:16:16;10.40;;;2.70;;
15913;SDS011;8055;51.930;8.840;2023-09-19T08:18:46;12.48;;;2.88;;
15913;SDS011;8055;51.930;8.840;2023-09-19T08:21:12;12.20;;;2.92;;
15913;SDS011;8055;51.930;8.840;2023-09-19T08:23:39;10.55;;;3.08;;
15913;SDS011;8055;51.930;8.840;2023-09-19T08:26:05;14.65;;;3.42;;
15913;SDS011;8055;51.930;8.840;2023-09-19T08:28:34;10.63;;;3.13;;
15913;SDS011;8055;51.930;8.840;2023-09-19T08:31:06;8.85;;;2.47;;
15913;SDS011;8055;51.930;8.840;2023-09-19T08:33:36;13.48;;;3.22;;
15913;SDS011;8055;51.930;8.840;2023-09-19T08:36:02;11.80;;;2.55;;
15913;SDS011;8055;51.930;8.840;2023-09-19T08:38:33;9.95;;;2.70;;
15913;SDS011;8055;51.930;8.840;2023-09-19T08:40:59;12.05;;;3.25;;
15913;SDS011;8055;51.930;8.840;2023-09-19T08:43:26;11.82;;;2.80;;
15913;SDS011;8055;51.930;8.840;2023-09-19T08:45:54;9.38;;;2.72;;
15913;SDS011;8055;51.930;8.840;2023-09-19T08:48:45;9.13;;;3.00;;
15913;SDS011;8055;51.930;8.840;2023-09-19T08:51:21;10.80;;;3.20;;
15913;SDS011;8055;51.930;8.840;2023-09-19T08:53:57;12.65;;;3.17;;
15913;SDS011;8055;51.930;8.840;2023-09-19T08:56:28;11.98;;;2.88;;
15913;SDS011;8055;51.930;8.840;2023-09-19T08:58:59;14.43;;;3.25;;
15913;SDS011;8055;51.930;8.840;2023-09-19T09:01:28;10.85;;;2.95;;
15913;SDS011;8055;51.930;8.840;2023-09-19T09:03:54;8.10;;;2.35;;
15913;SDS011;8055;51.930;8.840;2023-09-19T09:06:21;11.23;;;2.83;;
15913;SDS011;8055;51.930;8.840;2023-09-19T09:08:49;14.23;;;3.20;;
15913;SDS011;8055;51.930;8.840;2023-09-19T09:11:16;15.02;;;3.17;;
15913;SDS011;8055;51.930;8.840;2023-09-19T09:13:43;9.10;;;2.60;;
15913;SDS011;8055;51.930;8.840;2023-09-19T09:16:10;10.65;;;2.65;;
15913;SDS011;8055;51.930;8.840;2023-09-19T09:18:36;11.82;;;2.83;;
15913;SDS011;8055;51.930;8.840;2023-09-19T09:21:02;12.23;;;2.85;;
15913;SDS011;8055;51.930;8.840;2023-09-19T09:23:29;13.68;;;3.25;;
15913;SDS011;8055;51.930;8.840;2023-09-19T09:25:56;13.27;;;2.88;;
15913;SDS011;8055;51.930;8.840;2023-09-19T09:28:24;13.05;;;3.00;;
15913;SDS011;8055;51.930;8.840;2023-09-19T09:30:53;12.20;;;3.05;;
15913;SDS011;8055;51.930;8.840;2023-09-19T09:33:19;14.40;;;3.08;;
15913;SDS011;8055;51.930;8.840;2023-09-19T09:38:17;13.02;;;2.75;;
15913;SDS011;8055;51.930;8.840;2023-09-19T09:40:47;15.70;;;3.20;;
15913;SDS011;8055;51.930;8.840;2023-09-19T09:43:30;12.70;;;2.83;;
15913;SDS011;8055;51.930;8.840;2023-09-19T09:46:10;12.23;;;3.03;;
15913;SDS011;8055;51.930;8.840;2023-09-19T09:48:45;11.02;;;3.00;;
15913;SDS011;8055;51.930;8.840;2023-09-19T09:51:32;12.15;;;3.17;;
15913;SDS011;8055;51.930;8.840;2023-09-19T09:54:13;13.10;;;2.88;;
15913;SDS011;8055;51.930;8.840;2023-09-19T09:56:59;11.23;;;2.90;;
15913;SDS011;8055;51.930;8.840;2023-09-19T10:02:29;12.20;;;2.55;;
15913;SDS011;8055;51.930;8.840;2023-09-19T10:05:09;10.70;;;2.65;;
15913;SDS011;8055;51.930;8.840;2023-09-19T10:07:58;15.27;;;3.08;;
15913;SDS011;8055;51.930;8.840;2023-09-19T10:10:38;11.07;;;3.17;;
15913;SDS011;8055;51.930;8.840;2023-09-19T10:13:19;14.20;;;3.20;;
15913;SDS011;8055;51.930;8.840;2023-09-19T10:15:51;13.57;;;3.05;;
15913;SDS011;8055;51.930;8.840;2023-09-19T10:18:23;12.82;;;2.78;;
15913;SDS011;8055;51.930;8.840;2023-09-19T10:20:50;14.03;;;3.17;;
15913;SDS011;8055;51.930;8.840;2023-09-19T10:23:17;11.13;;;2.90;;
15913;SDS011;8055;51.930;8.840;2023-09-19T10:25:49;12.10;;;3.10;;
15913;SDS011;8055;51.930;8.840;2023-09-19T10:28:15;11.18;;;3.00;;
15913;SDS011;8055;51.930;8.840;2023-09-19T10:30:46;10.60;;;2.70;;
15913;SDS011;8055;51.930;8.840;2023-09-19T10:33:15;11.98;;;2.90;;
15913;SDS011;8055;51.930;8.840;2023-09-19T10:35:50;11.43;;;3.33;;
15913;SDS011;8055;51.930;8.840;2023-09-19T10:38:18;11.02;;;3.05;;
15913;SDS011;8055;51.930;8.840;2023-09-19T10:40:50;13.65;;;3.13;;
15913;SDS011;8055;51.930;8.840;2023-09-19T10:43:20;13.13;;;2.95;;
15913;SDS011;8055;51.930;8.840;2023-09-19T10:45:50;11.65;;;2.83;;
15913;SDS011;8055;51.930;8.840;2023-09-19T10:48:17;14.18;;;3.05;;
15913;SDS011;8055;51.930;8.840;2023-09-19T10:53:24;9.98;;;2.67;;
15913;SDS011;8055;51.930;8.840;2023-09-19T10:55:54;10.60;;;2.72;;
15913;SDS011;8055;51.930;8.840;2023-09-19T10:58:26;11.48;;;2.78;;
15913;SDS011;8055;51.930;8.840;2023-09-19T11:00:54;11.13;;;3.03;;
15913;SDS011;8055;51.930;8.840;2023-09-19T11:03:22;13.48;;;2.88;;
15913;SDS011;8055;51.930;8.840;2023-09-19T11:06:03;11.57;;;2.95;;
15913;SDS011;8055;51.930;8.840;2023-09-19T11:30:33;7.60;;;2.92;;
15913;SDS011;8055;51.930;8.840;2023-09-19T11:33:20;7.15;;;2.60;;
15913;SDS011;8055;51.930;8.840;2023-09-19T11:36:04;11.43;;;2.90;;
15913;SDS011;8055;51.930;8.840;2023-09-19T11:43:50;7.60;;;2.80;;
15913;SDS011;8055;51.930;8.840;2023-09-19T11:46:34;6.45;;;2.60;;
15913;SDS011;8055;51.930;8.840;2023-09-19T11:49:18;5.63;;;2.70;;
15913;SDS011;8055;51.930;8.840;2023-09-19T11:51:58;12.13;;;3.30;;
15913;SDS011;8055;51.930;8.840;2023-09-19T11:54:30;11.02;;;3.45;;
15913;SDS011;8055;51.930;8.840;2023-09-19T11:56:57;7.82;;;2.85;;
15913;SDS011;8055;51.930;8.840;2023-09-19T11:59:24;9.05;;;2.95;;
15913;SDS011;8055;51.930;8.840;2023-09-19T12:02:05;9.32;;;2.72;;
15913;SDS011;8055;51.930;8.840;2023-09-19T12:07:09;7.15;;;2.78;;
15913;SDS011;8055;51.930;8.840;2023-09-19T12:09:44;9.18;;;2.95;;
15913;SDS011;8055;51.930;8.840;2023-09-19T12:12:24;8.07;;;2.58;;
15913;SDS011;8055;51.930;8.840;2023-09-19T12:14:55;10.50;;;3.03;;
15913;SDS011;8055;51.930;8.840;2023-09-19T12:17:47;7.72;;;2.50;;
15913;SDS011;8055;51.930;8.840;2023-09-19T12:20:12;13.32;;;2.95;;
15913;SDS011;8055;51.930;8.840;2023-09-19T12:22:42;12.82;;;3.80;;
15913;SDS011;8055;51.930;8.840;2023-09-19T12:25:08;11.65;;;3.00;;
15913;SDS011;8055;51.930;8.840;2023-09-19T12:27:46;8.48;;;2.80;;
15913;SDS011;8055;51.930;8.840;2023-09-19T12:30:13;10.18;;;2.60;;
15913;SDS011;8055;51.930;8.840;2023-09-19T12:32:39;10.82;;;2.50;;
15913;SDS011;8055;51.930;8.840;2023-09-19T12:35:08;8.07;;;2.75;;
15913;SDS011;8055;51.930;8.840;2023-09-19T12:37:42;9.02;;;2.70;;
15913;SDS011;8055;51.930;8.840;2023-09-19T12:40:18;12.75;;;3.10;;
15913;SDS011;8055;51.930;8.840;2023-09-19T12:42:50;9.75;;;3.15;;
15913;SDS011;8055;51.930;8.840;2023-09-19T12:45:18;8.35;;;2.65;;
15913;SDS011;8055;51.930;8.840;2023-09-19T12:53:37;8.90;;;2.78;;
15913;SDS011;8055;51.930;8.840;2023-09-19T12:56:10;6.55;;;2.38;;
15913;SDS011;8055;51.930;8.840;2023-09-19T12:58:51;8.10;;;2.80;;
15913;SDS011;8055;51.930;8.840;2023-09-19T13:01:19;7.53;;;2.72;;
15913;SDS011;8055;51.930;8.840;2023-09-19T13:03:45;7.45;;;2.50;;
15913;SDS011;8055;51.930;8.840;2023-09-19T13:06:11;6.47;;;2.42;;
15913;SDS011;8055;51.930;8.840;2023-09-19T13:08:37;11.10;;;2.65;;
15913;SDS011;8055;51.930;8.840;2023-09-19T13:11:10;9.57;;;2.80;;
15913;SDS011;8055;51.930;8.840;2023-09-19T13:13:38;8.93;;;2.88;;
15913;SDS011;8055;51.930;8.840;2023-09-19T13:16:05;15.02;;;3.08;;
15913;SDS011;8055;51.930;8.840;2023-09-19T13:18:43;8.52;;;2.58;;
15913;SDS011;8055;51.930;8.840;2023-09-19T13:21:10;5.70;;;2.47;;
15913;SDS011;8055;51.930;8.840;2023-09-19T13:23:55;6.68;;;2.22;;
15913;SDS011;8055;51.930;8.840;2023-09-19T13:26:27;4.05;;;1.92;;
15913;SDS011;8055;51.930;8.840;2023-09-19T13:28:56;6.05;;;2.17;;
15913;SDS011;8055;51.930;8.840;2023-09-19T13:31:21;7.45;;;2.35;;
15913;SDS011;8055;51.930;8.840;2023-09-19T13:33:48;6.97;;;2.45;;
15913;SDS011;8055;51.930;8.840;2023-09-19T13:36:15;8.55;;;2.00;;
15913;SDS011;8055;51.930;8.840;2023-09-19T13:38:41;9.27;;;2.63;;
15913;SDS011;8055;51.930;8.840;2023-09-19T13:41:09;7.85;;;2.78;;
15913;SDS011;8055;51.930;8.840;2023-09-19T13:43:36;11.80;;;2.63;;
15913;SDS011;8055;51.930;8.840;2023-09-19T13:46:04;8.82;;;2.70;;
15913;SDS011;8055;51.930;8.840;2023-09-19T13:48:32;8.48;;;2.70;;
15913;SDS011;8055;51.930;8.840;2023-09-19T13:51:01;6.00;;;2.45;;
15913;SDS011;8055;51.930;8.840;2023-09-19T13:53:28;9.40;;;2.53;;
15913;SDS011;8055;51.930;8.840;2023-09-19T13:55:54;7.82;;;2.28;;
15913;SDS011;8055;51.930;8.840;2023-09-19T13:58:19;8.50;;;2.33;;
15913;SDS011;8055;51.930;8.840;2023-09-19T14:00:46;8.70;;;2.58;;
15913;SDS011;8055;51.930;8.840;2023-09-19T14:03:12;6.80;;;1.92;;
15913;SDS011;8055;51.930;8.840;2023-09-19T14:05:37;5.15;;;1.90;;
15913;SDS011;8055;51.930;8.840;2023-09-19T14:08:03;9.63;;;2.00;;
15913;SDS011;8055;51.930;8.840;2023-09-19T14:10:29;5.07;;;1.98;;
15913;SDS011;8055;51.930;8.840;2023-09-19T14:12:56;6.43;;;2.25;;
15913;SDS011;8055;51.930;8.840;2023-09-19T14:15:25;5.22;;;2.00;;
15913;SDS011;8055;51.930;8.840;2023-09-19T14:17:55;7.55;;;1.95;;
15913;SDS011;8055;51.930;8.840;2023-09-19T14:20:24;8.32;;;2.55;;
15913;SDS011;8055;51.930;8.840;2023-09-19T14:22:52;7.32;;;1.85;;
15913;SDS011;8055;51.930;8.840;2023-09-19T14:25:18;8.57;;;1.90;;
15913;SDS011;8055;51.930;8.840;2023-09-19T14:27:43;7.90;;;1.95;;
15913;SDS011;8055;51.930;8.840;2023-09-19T14:30:09;6.13;;;2.20;;
15913;SDS011;8055;51.930;8.840;2023-09-19T14:32:35;8.02;;;1.90;;
15913;SDS011;8055;51.930;8.840;2023-09-19T14:35:01;4.25;;;2.00;;
15913;SDS011;8055;51.930;8.840;2023-09-19T14:37:27;7.50;;;2.15;;
15913;SDS011;8055;51.930;8.840;2023-09-19T14:39:53;6.50;;;1.88;;
15913;SDS011;8055;51.930;8.840;2023-09-19T14:42:18;6.38;;;1.92;;
15913;SDS011;8055;51.930;8.840;2023-09-19T14:44:45;5.75;;;2.22;;
15913;SDS011;8055;51.930;8.840;2023-09-19T14:47:12;10.02;;;1.90;;
15913;SDS011;8055;51.930;8.840;2023-09-19T14:49:38;8.60;;;2.40;;
15913;SDS011;8055;51.930;8.840;2023-09-19T14:52:04;8.80;;;2.00;;
15913;SDS011;8055;51.930;8.840;2023-09-19T14:54:32;6.03;;;2.28;;
15913;SDS011;8055;51.930;8.840;2023-09-19T14:56:58;6.47;;;2.20;;
15913;SDS011;8055;51.930;8.840;2023-09-19T14:59:33;6.93;;;2.20;;
15913;SDS011;8055;51.930;8.840;2023-09-19T15:02:04;8.35;;;2.13;;
15913;SDS011;8055;51.930;8.840;2023-09-19T15:04:30;7.63;;;2.10;;
15913;SDS011;8055;51.930;8.840;2023-09-19T15:06:55;6.78;;;1.85;;
15913;SDS011;8055;51.930;8.840;2023-09-19T15:09:22;6.13;;;2.10;;
15913;SDS011;8055;51.930;8.840;2023-09-19T15:11:54;6.88;;;2.00;;
15913;SDS011;8055;51.930;8.840;2023-09-19T15:14:24;10.45;;;2.20;;
15913;SDS011;8055;51.930;8.840;2023-09-19T15:16:50;6.72;;;2.28;;
15913;SDS011;8055;51.930;8.840;2023-09-19T15:19:15;6.45;;;2.05;;
15913;SDS011;8055;51.930;8.840;2023-09-19T15:21:42;5.18;;;2.25;;
15913;SDS011;8055;51.930;8.840;2023-09-19T15:24:08;5.88;;;1.85;;
15913;SDS011;8055;51.930;8.840;2023-09-19T15:26:35;6.32;;;1.73;;
15913;SDS011;8055;51.930;8.840;2023-09-19T15:29:04;8.13;;;2.10;;
15913;SDS011;8055;51.930;8.840;2023-09-19T15:31:33;7.50;;;2.13;;
15913;SDS011;8055;51.930;8.840;2023-09-19T15:33:58;5.70;;;1.83;;
15913;SDS011;8055;51.930;8.840;2023-09-19T15:36:24;4.38;;;1.83;;
15913;SDS011;8055;51.930;8.840;2023-09-19T15:39:08;4.55;;;1.83;;
15913;SDS011;8055;51.930;8.840;2023-09-19T15:41:37;4.82;;;1.80;;
15913;SDS011;8055;51.930;8.840;2023-09-19T15:44:04;4.82;;;1.80;;
15913;SDS011;8055;51.930;8.840;2023-09-19T15:46:30;8.95;;;2.10;;
15913;SDS011;8055;51.930;8.840;2023-09-19T15:48:59;5.93;;;1.95;;
15913;SDS011;8055;51.930;8.840;2023-09-19T15:51:25;7.53;;;2.22;;
15913;SDS011;8055;51.930;8.840;2023-09-19T15:53:53;9.48;;;2.28;;
15913;SDS011;8055;51.930;8.840;2023-09-19T15:56:19;4.47;;;1.90;;
15913;SDS011;8055;51.930;8.840;2023-09-19T15:58:49;9.60;;;2.10;;
15913;SDS011;8055;51.930;8.840;2023-09-19T16:01:16;6.07;;;2.00;;
15913;SDS011;8055;51.930;8.840;2023-09-19T16:03:45;5.45;;;2.13;;